Map

Track Data

SID SEASON NUMBER BASIN SUBBASIN NAME ISO_TIME NATURE LAT LON WMO_WIND WMO_PRES WMO_AGENCY TRACK_TYPE DIST2LAND LANDFALL IFLAG USA_AGENCY USA_ATCF_ID USA_LAT USA_LON USA_RECORD USA_STATUS USA_WIND USA_PRES USA_SSHS USA_R34_NE USA_R34_SE USA_R34_SW USA_R34_NW USA_R50_NE USA_R50_SE USA_R50_SW USA_R50_NW USA_R64_NE USA_R64_SE USA_R64_SW USA_R64_NW USA_POCI USA_ROCI USA_RMW USA_EYE TOKYO_LAT TOKYO_LON TOKYO_GRADE TOKYO_WIND TOKYO_PRES TOKYO_R50_DIR TOKYO_R50_LONG TOKYO_R50_SHORT TOKYO_R30_DIR TOKYO_R30_LONG TOKYO_R30_SHORT TOKYO_LAND CMA_LAT CMA_LON CMA_CAT CMA_WIND CMA_PRES HKO_LAT HKO_LON HKO_CAT HKO_WIND HKO_PRES NEWDELHI_LAT NEWDELHI_LON NEWDELHI_GRADE NEWDELHI_WIND NEWDELHI_PRES NEWDELHI_CI NEWDELHI_DP NEWDELHI_POCI REUNION_LAT REUNION_LON REUNION_TYPE REUNION_WIND REUNION_PRES REUNION_TNUM REUNION_CI REUNION_RMW REUNION_R34_NE REUNION_R34_SE REUNION_R34_SW REUNION_R34_NW REUNION_R50_NE REUNION_R50_SE REUNION_R50_SW REUNION_R50_NW REUNION_R64_NE REUNION_R64_SE REUNION_R64_SW REUNION_R64_NW BOM_LAT BOM_LON BOM_TYPE BOM_WIND BOM_PRES BOM_TNUM BOM_CI BOM_RMW BOM_R34_NE BOM_R34_SE BOM_R34_SW BOM_R34_NW BOM_R50_NE BOM_R50_SE BOM_R50_SW BOM_R50_NW BOM_R64_NE BOM_R64_SE BOM_R64_SW BOM_R64_NW BOM_ROCI BOM_POCI BOM_EYE BOM_POS_METHOD BOM_PRES_METHOD NADI_LAT NADI_LON NADI_CAT NADI_WIND NADI_PRES WELLINGTON_LAT WELLINGTON_LON WELLINGTON_WIND WELLINGTON_PRES DS824_LAT DS824_LON DS824_STAGE DS824_WIND DS824_PRES TD9636_LAT TD9636_LON TD9636_STAGE TD9636_WIND TD9636_PRES TD9635_LAT TD9635_LON TD9635_WIND TD9635_PRES TD9635_ROCI NEUMANN_LAT NEUMANN_LON NEUMANN_CLASS NEUMANN_WIND NEUMANN_PRES MLC_LAT MLC_LON MLC_CLASS MLC_WIND MLC_PRES USA_GUST BOM_GUST BOM_GUST_PER REUNION_GUST REUNION_GUST_PER USA_SEAHGT USA_SEARAD_NE USA_SEARAD_SE USA_SEARAD_SW USA_SEARAD_NW STORM_SPEED STORM_DIR
1926224N16127 1926 30 WP MM NOT_NAMED 1926-08-11 22:00:00 NR 15.6000 126.800 main 320 279 __________O___ -1 15.6000 126.800 2 18 284
1926224N16127 1926 30 WP MM NOT_NAMED 1926-08-12 00:00:00 NR 15.7454 126.200 main 279 243 __________P___ -1 15.7454 126.200 2 18 284
1926224N16127 1926 30 WP MM NOT_NAMED 1926-08-12 03:00:00 NR 15.9511 125.312 main 248 231 __________P___ -1 15.9511 125.312 2 17 283
1926224N16127 1926 30 WP MM NOT_NAMED 1926-08-12 06:00:00 NR 16.1293 124.456 main 231 144 __________P___ -1 16.1293 124.456 2 16 281
1926224N16127 1926 30 WP MM NOT_NAMED 1926-08-12 09:00:00 NR 16.2660 123.653 main 144 117 __________P___ -1 16.2660 123.653 2 15 280
1926224N16127 1926 30 WP MM NOT_NAMED 1926-08-12 10:00:00 NR 16.3000 123.400 main 117 72 __________O___ -1 16.3000 123.400 2 14 277
1926224N16127 1926 30 WP MM NOT_NAMED 1926-08-12 12:00:00 NR 16.3493 122.919 main 72 0 __________P___ -1 16.3493 122.919 2 13 274
1926224N16127 1926 30 WP MM NOT_NAMED 1926-08-12 15:00:00 NR 16.3864 122.237 main 0 0 __________P___ -1 16.3864 122.237 2 13 272
1926224N16127 1926 30 WP MM NOT_NAMED 1926-08-12 18:00:00 NR 16.3964 121.563 main 0 0 __________P___ -1 16.3964 121.563 2 13 271
1926224N16127 1926 30 WP MM NOT_NAMED 1926-08-12 21:00:00 NR 16.3981 120.852 main 0 0 __________P___ -1 16.3981 120.852 2 14 270
1926224N16127 1926 30 WP MM NOT_NAMED 1926-08-12 22:00:00 NR 16.4000 120.600 main 0 0 __________O___ -1 16.4000 120.600 2 16 271
1926224N16127 1926 30 WP MM NOT_NAMED 1926-08-13 00:00:00 NR 16.4166 120.046 main 15 11 __________P___ -1 16.4166 120.046 2 17 272
1926224N16127 1926 30 WP MM NOT_NAMED 1926-08-13 03:00:00 NR 16.4416 119.163 main 65 75 __________P___ -1 16.4416 119.163 2 17 272
1926224N16127 1926 30 WP MM NOT_NAMED 1926-08-13 06:00:00 NR 16.4665 118.243 main 169 169 __________P___ -1 16.4665 118.243 2 18 272
1926224N16127 1926 30 WP MM NOT_NAMED 1926-08-13 09:00:00 NR 16.4915 117.310 main 262 262 __________P___ -1 16.4915 117.310 2 18 272
1926224N16127 1926 30 WP MM NOT_NAMED 1926-08-13 10:00:00 NR 16.5000 117.000 main 293 293 __________O___ -1 16.5000 117.000 2 20 273
1926224N16127 1926 30 WP MM NOT_NAMED 1926-08-13 12:00:00 NR 16.5444 116.285 main 367 377 __________P___ -1 16.5444 116.285 2 21 274
1926224N16127 1926 30 WP MM NOT_NAMED 1926-08-13 15:00:00 NR 16.6110 115.210 main 485 471 __________P___ -1 16.6110 115.210 2 20 273
1926224N16127 1926 30 WP MM NOT_NAMED 1926-08-13 18:00:00 NR 16.6483 114.253 main 471 410 __________P___ -1 16.6483 114.253 2 16 271
1926224N16127 1926 30 WP MM NOT_NAMED 1926-08-13 21:00:00 NR 16.6259 113.552 main 410 393 __________P___ -1 16.6259 113.552 2 12 267
1926224N16127 1926 30 WP MM NOT_NAMED 1926-08-13 22:00:00 NR 16.6000 113.400 main 393 385 __________O___ -1 16.6000 113.400 3 5 239
1926224N16127 1926 30 WP MM NOT_NAMED 1926-08-14 00:00:00 NR 16.4951 113.322 main 392 392 __________P___ -1 16.4951 113.322 3 4 166
1926224N16127 1926 30 WP MM NOT_NAMED 1926-08-14 03:00:00 NR 16.2765 113.484 main 423 423 __________P___ -1 16.2765 113.484 3 7 135
1926224N16127 1926 30 WP MM NOT_NAMED 1926-08-14 06:00:00 NR 16.0218 113.814 main 469 469 __________P___ -1 16.0218 113.814 3 8 129
1926224N16127 1926 30 WP MM NOT_NAMED 1926-08-14 09:00:00 NR 15.7737 114.130 main 508 508 __________P___ -1 15.7737 114.130 3 7 131
1926224N16127 1926 30 WP MM NOT_NAMED 1926-08-14 10:00:00 NR 15.7000 114.200 main 524 523 __________O___ -1 15.7000 114.200 4 5 0
1926224N16127 1926 30 WP MM NOT_NAMED 1926-08-14 12:00:00 NR 15.5257 114.121 main 531 519 __________P___ -1 15.5257 114.121 4 6 214
1926224N16127 1926 30 WP MM NOT_NAMED 1926-08-14 15:00:00 NR 15.2880 113.908 main 519 492 __________P___ -1 15.2880 113.908 4 6 228
1926224N16127 1926 30 WP MM NOT_NAMED 1926-08-14 18:00:00 NR 15.1397 113.673 main 492 471 __________P___ -1 15.1397 113.673 4 4 250
1926224N16127 1926 30 WP MM NOT_NAMED 1926-08-14 21:00:00 NR 15.1496 113.517 main 471 475 __________P___ -1 15.1496 113.517 4 3 290
1926224N16127 1926 30 WP MM NOT_NAMED 1926-08-14 22:00:00 NR 15.2000 113.500 main 475 475 __________O___ -1 15.2000 113.500 4 6 0
1926224N16127 1926 30 WP MM NOT_NAMED 1926-08-15 00:00:00 NR 15.4509 113.541 main 480 462 __________P___ -1 15.4509 113.541 4 10 14
1926224N16127 1926 30 WP MM NOT_NAMED 1926-08-15 03:00:00 NR 15.9926 113.714 main 462 442 __________P___ -1 15.9926 113.714 4 13 22
1926224N16127 1926 30 WP MM NOT_NAMED 1926-08-15 06:00:00 NR 16.6079 114.015 main 445 442 __________P___ -1 16.6079 114.015 4 14 31
1926224N16127 1926 30 WP MM NOT_NAMED 1926-08-15 09:00:00 NR 17.1563 114.435 main 448 450 __________P___ -1 17.1563 114.435 4 13 39
1926224N16127 1926 30 WP MM NOT_NAMED 1926-08-15 10:00:00 NR 17.3000 114.600 main 458 458 __________O___ -1 17.3000 114.600 4 12 62
1926224N16127 1926 30 WP MM NOT_NAMED 1926-08-15 12:00:00 NR 17.4296 114.967 main 488 466 __________P___ -1 17.4296 114.967 4 12 78
1926224N16127 1926 30 WP MM NOT_NAMED 1926-08-15 15:00:00 NR 17.5033 115.612 main 466 395 __________P___ -1 17.5033 115.612 4 13 87
1926224N16127 1926 30 WP MM NOT_NAMED 1926-08-15 18:00:00 NR 17.4986 116.309 main 395 326 __________P___ -1 17.4986 116.309 4 13 91
1926224N16127 1926 30 WP MM NOT_NAMED 1926-08-15 21:00:00 NR 17.4904 116.989 main 326 307 __________P___ -1 17.4904 116.989 4 13 90
1926224N16127 1926 30 WP MM NOT_NAMED 1926-08-15 22:00:00 NR 17.5000 117.200 main 307 269 __________O___ -1 17.5000 117.200 4 12 84
1926224N16127 1926 30 WP MM NOT_NAMED 1926-08-16 00:00:00 NR 17.5538 117.601 main 275 222 __________P___ -1 17.5538 117.601 4 11 80
1926224N16127 1926 30 WP MM NOT_NAMED 1926-08-16 03:00:00 NR 17.6657 118.160 main 222 181 __________P___ -1 17.6657 118.160 4 10 74
1926224N16127 1926 30 WP MM NOT_NAMED 1926-08-16 06:00:00 NR 17.8368 118.639 main 181 144 __________P___ -1 17.8368 118.639 4 9 62
1926224N16127 1926 30 WP MM NOT_NAMED 1926-08-16 09:00:00 NR 18.0920 119.007 main 148 138 __________P___ -1 18.0920 119.007 4 9 50
1926224N16127 1926 30 WP MM NOT_NAMED 1926-08-16 10:00:00 NR 18.2000 119.100 main 143 139 __________O___ -1 18.2000 119.100 4 8 31
1926224N16127 1926 30 WP MM NOT_NAMED 1926-08-16 12:00:00 NR 18.4534 119.237 main 144 134 __________P___ -1 18.4534 119.237 4 9 18
1926224N16127 1926 30 WP MM NOT_NAMED 1926-08-16 15:00:00 NR 18.9125 119.341 main 147 143 __________P___ -1 18.9125 119.341 4 10 6
1926224N16127 1926 30 WP MM NOT_NAMED 1926-08-16 18:00:00 NR 19.4403 119.355 main 168 176 __________P___ -1 19.4403 119.355 4 11 359
1926224N16127 1926 30 WP MM NOT_NAMED 1926-08-16 21:00:00 NR 20.0074 119.317 main 222 222 __________P___ -1 20.0074 119.317 4 11 355
1926224N16127 1926 30 WP MM NOT_NAMED 1926-08-16 22:00:00 NR 20.2000 119.300 main 238 __________O___ -1 20.2000 119.300 7 12 354

Digital Typhoon Data and Search

About IBTrACS Database

This database is a web-friendly format of International Best Track Archive for Climate Stewardship (IBTrACS), a global best track data archive curated by NOAA dating back to 1842.

Updated: 2021-11-26